createdAt,value
2023-01-21T00:01:01.387Z,15.47
2023-01-21T00:03:28.151Z,15.37
2023-01-21T00:05:54.885Z,14.37
2023-01-21T00:08:21.681Z,14.90
2023-01-21T00:10:48.425Z,14.30
2023-01-21T00:13:15.382Z,15.53
2023-01-21T00:15:42.139Z,15.27
2023-01-21T00:18:09.088Z,14.57
2023-01-21T00:20:36.054Z,14.60
2023-01-21T00:23:03.278Z,15.07
2023-01-21T00:25:30.026Z,13.37
2023-01-21T00:27:58.070Z,13.97
2023-01-21T00:30:24.838Z,14.83
2023-01-21T00:32:52.977Z,14.17
2023-01-21T00:35:19.722Z,14.97
2023-01-21T00:37:46.462Z,13.60
2023-01-21T00:40:16.592Z,13.73
2023-01-21T00:42:43.460Z,15.00
2023-01-21T00:45:10.557Z,14.40
2023-01-21T00:47:37.317Z,14.60
2023-01-21T00:50:05.006Z,15.50
2023-01-21T00:52:31.782Z,14.50
2023-01-21T00:54:58.494Z,14.97
2023-01-21T00:57:25.386Z,14.40
2023-01-21T00:59:53.483Z,13.43
2023-01-21T01:02:23.018Z,13.57
2023-01-21T01:04:49.772Z,13.53
2023-01-21T01:07:16.583Z,15.27
2023-01-21T01:09:43.365Z,13.73
2023-01-21T01:12:10.148Z,15.53
2023-01-21T01:14:36.842Z,15.50
2023-01-21T01:17:03.630Z,14.60
2023-01-21T01:19:30.425Z,14.47
2023-01-21T01:21:57.171Z,14.63
2023-01-21T01:24:23.978Z,14.07
2023-01-21T01:26:50.640Z,13.70
2023-01-21T01:29:18.539Z,13.90
2023-01-21T01:31:45.506Z,14.93
2023-01-21T01:34:12.322Z,13.60
2023-01-21T01:36:39.039Z,13.80
2023-01-21T01:39:05.843Z,14.30
2023-01-21T01:41:35.130Z,15.33
2023-01-21T01:44:26.234Z,13.80
2023-01-21T01:46:57.675Z,13.73
2023-01-21T01:49:24.436Z,14.03
2023-01-21T01:52:02.446Z,13.77
2023-01-21T01:54:35.508Z,13.83
2023-01-21T01:57:05.377Z,14.67
2023-01-21T01:59:32.942Z,14.23
2023-01-21T02:02:05.271Z,14.43
2023-01-21T02:04:37.922Z,13.77
2023-01-21T02:07:04.707Z,14.43
2023-01-21T02:09:31.469Z,15.03
2023-01-21T02:12:01.306Z,12.57
2023-01-21T02:14:30.407Z,14.20
2023-01-21T02:17:14.739Z,13.93
2023-01-21T02:20:18.232Z,14.00
2023-01-21T02:22:53.949Z,14.57
2023-01-21T02:25:34.273Z,13.87
2023-01-21T02:28:03.712Z,14.27
2023-01-21T02:30:55.983Z,13.50
2023-01-21T02:33:47.941Z,14.37
2023-01-21T02:36:37.707Z,14.53
2023-01-21T02:39:13.342Z,13.43
2023-01-21T02:41:45.781Z,14.87
2023-01-21T02:44:35.948Z,14.23
2023-01-21T02:47:26.790Z,14.27
2023-01-21T02:50:10.001Z,14.23
2023-01-21T02:52:36.791Z,13.63
2023-01-21T02:55:04.008Z,14.17
2023-01-21T02:57:50.110Z,14.00
2023-01-21T03:00:26.379Z,14.53
2023-01-21T03:03:17.539Z,12.90
2023-01-21T03:05:51.351Z,13.10
2023-01-21T03:08:21.896Z,14.77
2023-01-21T03:11:00.695Z,15.17
2023-01-21T03:13:51.706Z,14.60
2023-01-21T03:16:42.684Z,13.90
2023-01-21T03:19:16.334Z,13.80
2023-01-21T03:21:43.702Z,15.33
2023-01-21T03:24:14.279Z,16.83
2023-01-21T03:26:47.798Z,14.40
2023-01-21T03:29:21.233Z,16.10
2023-01-21T03:31:56.260Z,14.73
2023-01-21T03:34:25.510Z,14.63
2023-01-21T03:37:04.590Z,14.77
2023-01-21T03:39:46.736Z,15.20
2023-01-21T03:42:14.246Z,14.97
2023-01-21T03:44:41.835Z,14.50
2023-01-21T03:47:28.712Z,14.93
2023-01-21T03:50:13.823Z,14.43
2023-01-21T03:52:42.973Z,15.50
2023-01-21T03:55:11.461Z,13.47
2023-01-21T03:57:38.536Z,14.17
2023-01-21T04:00:06.999Z,14.40
2023-01-21T04:02:33.806Z,13.97
2023-01-21T04:05:00.508Z,14.63
2023-01-21T04:07:27.330Z,15.03
2023-01-21T04:09:54.132Z,13.60
2023-01-21T04:12:21.015Z,14.80
2023-01-21T04:14:47.753Z,14.80
2023-01-21T04:17:14.496Z,14.00
2023-01-21T04:19:43.758Z,15.27
2023-01-21T04:22:10.447Z,15.37
2023-01-21T04:24:37.255Z,14.80
2023-01-21T04:27:04.099Z,15.13
2023-01-21T04:29:30.879Z,13.83
2023-01-21T04:31:57.593Z,14.90
2023-01-21T04:34:24.367Z,13.77
2023-01-21T04:36:51.057Z,14.80
2023-01-21T04:39:19.351Z,16.50
2023-01-21T04:41:46.090Z,16.23
2023-01-21T04:44:12.878Z,14.43
2023-01-21T04:46:39.666Z,14.53
2023-01-21T04:49:09.394Z,16.37
2023-01-21T04:51:36.195Z,15.33
2023-01-21T04:54:03.001Z,20.17
2023-01-21T04:56:30.942Z,17.83
2023-01-21T04:58:57.685Z,15.43
2023-01-21T05:01:26.074Z,14.90
2023-01-21T05:03:52.884Z,14.27
2023-01-21T05:06:19.860Z,14.10
2023-01-21T05:08:46.691Z,14.20
2023-01-21T05:11:19.476Z,15.47
2023-01-21T05:13:46.258Z,15.33
2023-01-21T05:16:14.315Z,15.47
2023-01-21T05:18:41.289Z,12.53
2023-01-21T05:21:08.359Z,14.77
2023-01-21T05:23:35.117Z,14.77
2023-01-21T05:26:02.120Z,14.23
2023-01-21T05:28:28.865Z,13.47
2023-01-21T05:30:59.372Z,15.20
2023-01-21T05:33:30.692Z,16.30
2023-01-21T05:35:57.387Z,15.90
2023-01-21T05:38:24.132Z,14.03
2023-01-21T05:40:50.809Z,14.93
2023-01-21T05:43:17.566Z,14.60
2023-01-21T05:45:44.258Z,14.80
2023-01-21T05:48:13.900Z,15.27
2023-01-21T05:50:40.645Z,13.40
2023-01-21T05:53:07.362Z,14.77
2023-01-21T05:55:34.103Z,14.53
2023-01-21T05:58:00.794Z,14.53
2023-01-21T06:00:27.567Z,14.70
2023-01-21T06:02:54.287Z,14.40
2023-01-21T06:05:21.056Z,15.20
2023-01-21T06:07:47.731Z,16.33
2023-01-21T06:10:14.821Z,15.43
2023-01-21T06:12:41.586Z,15.10
2023-01-21T06:15:08.899Z,14.53
2023-01-21T06:17:40.050Z,14.67
2023-01-21T06:20:08.424Z,15.90
2023-01-21T06:22:35.208Z,16.07
2023-01-21T06:25:02.074Z,16.07
2023-01-21T06:27:28.878Z,14.80
2023-01-21T06:29:55.568Z,14.87
2023-01-21T06:32:22.359Z,15.90
2023-01-21T06:34:49.128Z,16.40
2023-01-21T06:37:15.862Z,16.03
2023-01-21T06:39:42.761Z,15.87
2023-01-21T06:42:09.459Z,15.70
2023-01-21T06:44:36.155Z,16.10
2023-01-21T06:47:02.876Z,15.30
2023-01-21T06:49:29.683Z,15.73
2023-01-21T06:51:56.577Z,15.20
2023-01-21T06:54:23.387Z,15.07
2023-01-21T06:56:50.114Z,14.07
2023-01-21T06:59:16.784Z,14.60
2023-01-21T07:01:44.198Z,15.23
2023-01-21T07:04:10.988Z,15.00
2023-01-21T07:06:40.378Z,15.60
2023-01-21T07:09:07.735Z,15.63
2023-01-21T07:11:34.802Z,14.83
2023-01-21T07:14:01.545Z,14.90
2023-01-21T07:16:28.379Z,15.37
2023-01-21T07:18:55.091Z,15.13
2023-01-21T07:21:24.045Z,15.63
2023-01-21T07:23:53.286Z,16.27
2023-01-21T07:26:20.182Z,14.80
2023-01-21T07:28:47.037Z,14.77
2023-01-21T07:31:14.227Z,14.13
2023-01-21T07:33:41.300Z,14.53
2023-01-21T07:36:08.391Z,16.47
2023-01-21T07:38:35.094Z,14.57
2023-01-21T07:41:01.833Z,15.30
2023-01-21T07:43:28.568Z,16.77
2023-01-21T07:45:58.499Z,13.30
2023-01-21T07:48:26.591Z,16.53
2023-01-21T07:50:57.654Z,15.73
2023-01-21T07:53:24.478Z,14.43
2023-01-21T07:55:51.283Z,15.37
2023-01-21T07:58:17.984Z,14.93
2023-01-21T08:00:44.853Z,15.60
2023-01-21T08:03:11.569Z,14.43
2023-01-21T08:05:38.331Z,15.83
2023-01-21T08:08:05.181Z,14.80
2023-01-21T08:10:34.629Z,15.37
2023-01-21T08:13:02.090Z,17.77
2023-01-21T08:15:28.904Z,14.90
2023-01-21T08:17:56.529Z,14.97
2023-01-21T08:20:23.736Z,14.90
2023-01-21T08:22:50.794Z,14.63
2023-01-21T08:25:18.138Z,15.60
2023-01-21T08:27:45.147Z,14.33
2023-01-21T08:30:12.443Z,14.83
2023-01-21T08:32:39.265Z,15.63
2023-01-21T08:35:06.569Z,14.17
2023-01-21T08:37:33.339Z,14.67
2023-01-21T08:40:00.124Z,13.40
2023-01-21T08:42:29.283Z,14.50
2023-01-21T08:44:56.031Z,14.50
2023-01-21T08:47:22.876Z,12.17
2023-01-21T08:49:49.790Z,15.73
2023-01-21T08:52:20.871Z,13.20
2023-01-21T08:54:49.742Z,14.80
2023-01-21T08:57:17.438Z,14.57
2023-01-21T08:59:44.149Z,14.83
2023-01-21T09:02:11.660Z,14.97
2023-01-21T09:04:38.398Z,14.87
2023-01-21T09:07:05.117Z,13.77
2023-01-21T09:09:31.817Z,12.27
2023-01-21T09:11:58.601Z,15.17
2023-01-21T09:14:26.456Z,15.47
2023-01-21T09:16:55.901Z,14.77
2023-01-21T09:19:23.897Z,15.27
2023-01-21T09:21:52.592Z,14.57
2023-01-21T09:24:19.418Z,15.90
2023-01-21T09:26:46.214Z,14.73
2023-01-21T09:29:13.174Z,14.77
2023-01-21T09:31:40.003Z,15.83
2023-01-21T09:34:06.878Z,14.80
2023-01-21T09:36:34.985Z,13.87
2023-01-21T09:39:01.853Z,14.50
2023-01-21T09:41:38.949Z,14.87
2023-01-21T09:44:29.966Z,15.57
2023-01-21T09:47:02.422Z,16.27
2023-01-21T09:49:48.376Z,14.70
2023-01-21T09:52:33.172Z,14.07
2023-01-21T09:55:01.798Z,14.33
2023-01-21T09:57:54.591Z,15.70
2023-01-21T10:00:42.150Z,14.53
2023-01-21T10:03:08.826Z,14.67
2023-01-21T10:05:43.340Z,13.67
2023-01-21T10:08:41.991Z,13.50
2023-01-21T10:11:34.763Z,14.17
2023-01-21T10:14:23.333Z,14.57
2023-01-21T10:16:56.165Z,12.53
2023-01-21T10:19:30.279Z,12.87
2023-01-21T10:22:09.895Z,12.40
2023-01-21T10:24:41.019Z,12.60
2023-01-21T10:27:15.029Z,11.93
2023-01-21T10:29:42.277Z,12.67
2023-01-21T10:32:21.176Z,11.73
2023-01-21T10:34:52.905Z,13.07
2023-01-21T10:37:43.408Z,12.07
2023-01-21T10:40:14.107Z,11.33
2023-01-21T10:42:49.818Z,11.97
2023-01-21T10:45:35.803Z,12.73
2023-01-21T10:48:32.280Z,13.00
2023-01-21T10:54:12.727Z,12.37
2023-01-21T10:57:07.851Z,10.90
2023-01-21T10:59:37.400Z,11.93
2023-01-21T11:02:12.832Z,10.40
2023-01-21T11:04:41.814Z,10.97
2023-01-21T11:07:12.106Z,11.70
2023-01-21T11:14:58.377Z,10.50
2023-01-21T11:17:40.355Z,11.57
2023-01-21T11:20:35.506Z,11.97
2023-01-21T11:23:06.896Z,11.53
2023-01-21T11:25:45.216Z,11.20
2023-01-21T11:28:26.572Z,11.30
2023-01-21T11:31:12.899Z,11.90
2023-01-21T11:33:42.283Z,11.20
2023-01-21T11:36:20.962Z,11.10
2023-01-21T11:39:04.287Z,11.00
2023-01-21T11:41:32.113Z,10.30
2023-01-21T11:44:16.301Z,10.90
2023-01-21T11:46:43.242Z,10.27
2023-01-21T11:49:09.906Z,10.70
2023-01-21T11:51:38.890Z,10.23
2023-01-21T11:54:22.180Z,10.63
2023-01-21T11:56:58.771Z,11.20
2023-01-21T11:59:35.437Z,10.20
2023-01-21T12:02:07.312Z,11.63
2023-01-21T12:04:35.216Z,11.00
2023-01-21T12:07:02.458Z,10.77
2023-01-21T12:09:29.640Z,11.83
2023-01-21T12:12:18.193Z,10.40
2023-01-21T12:14:58.024Z,11.90
2023-01-21T12:17:41.269Z,10.77
2023-01-21T12:20:29.573Z,11.30
2023-01-21T12:23:30.747Z,11.17
2023-01-21T12:26:21.135Z,10.70
2023-01-21T12:31:45.260Z,9.57
2023-01-21T12:34:21.974Z,10.83
2023-01-21T12:37:01.710Z,10.73
2023-01-21T12:39:37.437Z,11.07
2023-01-21T12:42:21.179Z,10.67
2023-01-21T12:45:39.413Z,11.40
2023-01-21T12:48:21.760Z,10.93
2023-01-21T12:51:09.103Z,10.93
2023-01-21T12:53:54.079Z,12.03
2023-01-21T12:56:37.677Z,11.50
2023-01-21T12:59:25.091Z,10.90
2023-01-21T13:02:15.302Z,11.10
2023-01-21T13:04:55.455Z,11.00
2023-01-21T13:07:40.834Z,10.00
2023-01-21T13:10:39.096Z,10.60
2023-01-21T13:13:23.625Z,11.80
2023-01-21T13:15:54.771Z,11.03
2023-01-21T13:18:43.561Z,11.37
2023-01-21T13:21:32.746Z,11.30
2023-01-21T13:24:14.467Z,10.30
2023-01-21T13:26:57.097Z,10.10
2023-01-21T13:29:36.550Z,9.57
2023-01-21T13:32:21.403Z,9.97
2023-01-21T13:34:53.895Z,10.37
2023-01-21T13:37:34.240Z,10.33
2023-01-21T13:40:30.504Z,9.77
2023-01-21T13:43:08.078Z,9.07
2023-01-21T13:46:11.605Z,9.10
2023-01-21T13:49:01.555Z,8.57
2023-01-21T13:51:34.364Z,8.57
2023-01-21T13:54:26.739Z,9.40
2023-01-21T13:57:15.882Z,8.60
2023-01-21T14:00:03.756Z,8.40
2023-01-21T14:02:48.034Z,7.93
2023-01-21T14:05:44.006Z,7.47
2023-01-21T14:08:10.727Z,8.00
2023-01-21T14:10:43.733Z,8.67
2023-01-21T14:13:31.818Z,7.90
2023-01-21T14:16:02.708Z,7.30
2023-01-21T14:18:52.907Z,7.27
2023-01-21T14:21:37.718Z,7.13
2023-01-21T14:24:17.673Z,7.93
2023-01-21T14:26:59.665Z,9.30
2023-01-21T14:29:45.067Z,9.60
2023-01-21T14:32:25.768Z,10.83
2023-01-21T14:35:19.920Z,9.90
2023-01-21T14:38:07.969Z,8.60
2023-01-21T14:40:43.882Z,8.97
2023-01-21T14:43:31.067Z,8.87
2023-01-21T14:45:59.750Z,8.60
2023-01-21T14:48:29.655Z,9.20
2023-01-21T14:51:11.248Z,8.60
2023-01-21T14:53:47.903Z,9.07
2023-01-21T14:56:19.765Z,8.27
2023-01-21T14:58:58.251Z,7.93
2023-01-21T15:01:37.441Z,7.17
2023-01-21T15:04:17.266Z,8.10
2023-01-21T15:06:44.063Z,7.67
2023-01-21T15:09:22.701Z,5.83
2023-01-21T15:11:55.324Z,6.73
2023-01-21T15:14:30.904Z,7.07
2023-01-21T15:16:57.671Z,6.27
2023-01-21T15:19:30.575Z,6.33
2023-01-21T15:22:00.202Z,7.23
2023-01-21T15:24:31.504Z,7.53
2023-01-21T15:27:28.505Z,6.40
2023-01-21T15:29:55.305Z,7.37
2023-01-21T15:32:35.305Z,6.77
2023-01-21T15:35:33.045Z,7.07
2023-01-21T15:38:07.929Z,6.90
2023-01-21T15:40:53.117Z,6.97
2023-01-21T15:43:41.358Z,6.67
2023-01-21T15:46:39.765Z,7.30
2023-01-21T15:49:19.141Z,7.60
2023-01-21T15:52:24.099Z,7.00
2023-01-21T15:54:59.630Z,7.27
2023-01-21T15:57:37.137Z,7.33
2023-01-21T16:00:12.687Z,6.67
2023-01-21T16:03:21.308Z,7.13
2023-01-21T16:06:06.816Z,6.47
2023-01-21T16:09:22.653Z,6.20
2023-01-21T16:12:20.477Z,6.87
2023-01-21T16:15:02.104Z,7.03
2023-01-21T16:17:53.679Z,7.47
2023-01-21T16:20:20.547Z,6.83
2023-01-21T16:22:52.479Z,7.40
2023-01-21T16:25:22.703Z,7.57
2023-01-21T16:27:52.633Z,6.30
2023-01-21T16:30:30.945Z,7.53
2023-01-21T16:33:15.534Z,7.50
2023-01-21T16:35:43.670Z,8.23
2023-01-21T16:38:18.948Z,6.90
2023-01-21T16:40:47.462Z,8.13
2023-01-21T16:43:28.833Z,7.73
2023-01-21T16:46:01.313Z,7.53
2023-01-21T16:48:33.432Z,7.37
2023-01-21T16:51:01.320Z,7.50
2023-01-21T16:53:28.212Z,7.87
2023-01-21T16:55:56.934Z,7.43
2023-01-21T16:58:27.717Z,7.53
2023-01-21T17:01:11.223Z,7.23
2023-01-21T17:03:39.139Z,7.93
2023-01-21T17:06:19.720Z,7.07
2023-01-21T17:08:53.467Z,7.23
2023-01-21T17:11:22.147Z,8.15
2023-01-21T17:13:49.646Z,6.83
2023-01-21T17:16:40.995Z,6.67
2023-01-21T17:19:24.411Z,6.40
2023-01-21T17:21:58.421Z,6.80
2023-01-21T17:24:39.373Z,7.30
2023-01-21T17:27:20.537Z,6.60
2023-01-21T17:29:48.312Z,6.00
2023-01-21T17:32:26.934Z,6.47
2023-01-21T17:35:24.127Z,6.17
2023-01-21T17:38:02.574Z,6.40
2023-01-21T17:40:45.590Z,5.90
2023-01-21T17:43:18.354Z,6.53
2023-01-21T17:45:46.727Z,5.77
2023-01-21T17:48:22.049Z,6.53
2023-01-21T17:50:48.787Z,6.37
2023-01-21T17:53:27.114Z,6.43
2023-01-21T17:56:04.563Z,7.73
2023-01-21T17:58:45.035Z,7.10
2023-01-21T18:01:13.317Z,7.13
2023-01-21T18:03:40.095Z,6.80
2023-01-21T18:06:17.230Z,6.87
2023-01-21T18:08:44.038Z,6.90
2023-01-21T18:11:15.239Z,7.90
2023-01-21T18:13:42.017Z,8.60
2023-01-21T18:16:09.054Z,7.80
2023-01-21T18:18:37.209Z,7.37
2023-01-21T18:21:04.202Z,7.27
2023-01-21T18:23:31.142Z,7.47
2023-01-21T18:25:58.139Z,7.40
2023-01-21T18:28:28.454Z,7.20
2023-01-21T18:30:57.612Z,7.93
2023-01-21T18:33:24.977Z,7.77
2023-01-21T18:35:52.809Z,7.03
2023-01-21T18:38:26.974Z,7.97
2023-01-21T18:40:57.375Z,7.43
2023-01-21T18:43:25.538Z,7.50
2023-01-21T18:45:54.256Z,6.77
2023-01-21T18:48:27.626Z,8.33
2023-01-21T18:50:55.018Z,7.63
2023-01-21T18:53:21.950Z,7.53
2023-01-21T18:55:50.953Z,8.27
2023-01-21T18:58:17.800Z,8.33
2023-01-21T19:00:44.635Z,10.00
2023-01-21T19:03:15.578Z,10.67
2023-01-21T19:05:49.399Z,8.20
2023-01-21T19:08:21.934Z,9.00
2023-01-21T19:10:51.826Z,8.17
2023-01-21T19:13:18.754Z,8.70
2023-01-21T19:15:49.997Z,8.83
2023-01-21T19:18:16.860Z,8.17
2023-01-21T19:20:44.007Z,8.37
2023-01-21T19:23:15.605Z,8.60
2023-01-21T19:26:01.866Z,8.40
2023-01-21T19:28:28.799Z,8.73
2023-01-21T19:30:55.905Z,8.37
2023-01-21T19:33:24.310Z,8.70
2023-01-21T19:36:00.478Z,8.60
2023-01-21T19:38:27.957Z,8.73
2023-01-21T19:40:55.761Z,9.13
2023-01-21T19:43:23.310Z,9.57
2023-01-21T19:45:51.637Z,9.40
2023-01-21T19:48:21.243Z,8.73
2023-01-21T19:50:48.325Z,9.80
2023-01-21T19:53:16.954Z,9.80
2023-01-21T19:55:45.495Z,10.47
2023-01-21T19:58:23.859Z,9.73
2023-01-21T20:00:53.489Z,9.77
2023-01-21T20:03:22.661Z,9.60
2023-01-21T20:05:53.759Z,9.67
2023-01-21T20:08:23.519Z,9.87
2023-01-21T20:10:50.450Z,9.33
2023-01-21T20:13:18.436Z,9.97
2023-01-21T20:15:47.280Z,9.43
2023-01-21T20:18:20.006Z,10.40
2023-01-21T20:20:46.824Z,10.60
2023-01-21T20:23:16.373Z,9.93
2023-01-21T20:25:44.881Z,10.30
2023-01-21T20:28:22.049Z,10.20
2023-01-21T20:30:50.915Z,10.77
2023-01-21T20:33:20.095Z,10.63
2023-01-21T20:35:49.071Z,9.70
2023-01-21T20:38:19.146Z,10.33
2023-01-21T20:40:45.867Z,10.50
2023-01-21T20:43:12.877Z,9.80
2023-01-21T20:45:45.487Z,10.43
2023-01-21T20:48:24.935Z,9.10
2023-01-21T20:50:52.105Z,10.70
2023-01-21T20:53:22.072Z,9.93
2023-01-21T20:55:50.870Z,10.60
2023-01-21T20:58:19.318Z,9.97
2023-01-21T21:00:46.659Z,10.97
2023-01-21T21:03:16.583Z,10.23
2023-01-21T21:05:43.947Z,10.47
2023-01-21T21:08:15.421Z,10.53
2023-01-21T21:10:42.474Z,10.47
2023-01-21T21:13:10.158Z,9.83
2023-01-21T21:15:37.735Z,10.23
2023-01-21T21:18:05.521Z,10.17
2023-01-21T21:20:38.778Z,10.27
2023-01-21T21:23:14.787Z,11.13
2023-01-21T21:25:44.938Z,10.47
2023-01-21T21:28:14.113Z,10.37
2023-01-21T21:30:41.007Z,10.70
2023-01-21T21:33:12.100Z,11.10
2023-01-21T21:35:40.459Z,10.53
2023-01-21T21:38:12.075Z,9.93
2023-01-21T21:40:41.931Z,10.67
2023-01-21T21:43:35.719Z,9.83
2023-01-21T21:46:31.596Z,11.80
2023-01-21T21:48:58.370Z,10.90
2023-01-21T21:51:25.310Z,10.50
2023-01-21T21:53:52.315Z,10.13
2023-01-21T21:56:21.767Z,10.47
2023-01-21T21:58:49.379Z,10.13
2023-01-21T22:01:21.724Z,11.03
2023-01-21T22:03:48.750Z,12.47
2023-01-21T22:06:17.825Z,12.37
2023-01-21T22:08:44.669Z,11.37
2023-01-21T22:11:16.254Z,11.00
2023-01-21T22:13:44.830Z,11.43
2023-01-21T22:16:15.073Z,12.03
2023-01-21T22:18:41.972Z,11.30
2023-01-21T22:21:15.330Z,12.13
2023-01-21T22:23:42.692Z,11.43
2023-01-21T22:26:13.084Z,11.53
2023-01-21T22:28:40.554Z,11.43
2023-01-21T22:31:14.150Z,12.07
2023-01-21T22:33:41.337Z,11.60
2023-01-21T22:36:13.032Z,12.20
2023-01-21T22:38:40.863Z,12.67
2023-01-21T22:41:08.681Z,12.30
2023-01-21T22:43:35.497Z,11.93
2023-01-21T22:46:02.658Z,11.17
2023-01-21T22:48:31.565Z,12.33
2023-01-21T22:51:00.573Z,11.80
2023-01-21T22:53:28.117Z,11.93
2023-01-21T22:56:01.951Z,12.40
2023-01-21T22:58:32.059Z,11.00
2023-01-21T23:01:00.085Z,11.97
2023-01-21T23:03:27.969Z,11.03
2023-01-21T23:05:56.738Z,11.17
2023-01-21T23:08:23.526Z,12.27
2023-01-21T23:10:59.215Z,11.53
2023-01-21T23:13:26.405Z,12.47
2023-01-21T23:15:53.288Z,12.70
2023-01-21T23:18:20.051Z,11.30
2023-01-21T23:20:46.813Z,12.53
2023-01-21T23:23:13.713Z,12.27
2023-01-21T23:25:44.767Z,12.07
2023-01-21T23:28:12.950Z,12.07
2023-01-21T23:30:40.324Z,13.33
2023-01-21T23:33:07.081Z,12.20
2023-01-21T23:35:34.730Z,13.23
2023-01-21T23:38:02.628Z,14.10
2023-01-21T23:40:29.391Z,14.00
2023-01-21T23:42:56.113Z,13.13
2023-01-21T23:45:23.098Z,13.40
2023-01-21T23:47:50.150Z,13.57
2023-01-21T23:50:17.342Z,13.03
2023-01-21T23:52:44.340Z,13.30
2023-01-21T23:55:11.444Z,13.40
2023-01-21T23:57:38.191Z,15.33
